Appleton, WI (54912)

8:24 AM CST on February 07, 2016 (GMT -0600)
AB9NN KD8KRS Appleton | | Change Station
CLOSE
Current Station
Personal Weather Station
Location: Appleton, WI
Elevation: 837 ft
Nearby Weather Stations

Elev 837 ft 44.28 °N, 88.43 °W | Updated 32 seconds ago

Mostly Cloudy
Mostly Cloudy
36.3 °F
Feels Like 32 °F
N
4.7
Wind Variable Wind from SSW

Today
High -- | Low -- °F
--% Chance of Precip.
Yesterday
High -- | Low -- °F
Precip. -- in
Pressure 29.65 in
Visibility 10.0 miles
Clouds Scattered Clouds 9000 ft
Mostly Cloudy 12000 ft
Windchill 32 °F
Dew Point 29 °F
Humidity 75%
Rainfall 0.02 in
Snow Depth Not available.
7:04 AM 5:11 PM
Waning Crescent, 1% visible
METAR KATW 071345Z 18009KT 10SM SCT090 BKN120 01/M02 A2965
Pressure 29.65 in
Visibility 10.0 miles
Clouds Scattered Clouds 9000 ft
Mostly Cloudy 12000 ft
Windchill 32 °F
Dew Point 29 °F
Humidity 75%
Rainfall 0.02 in
Snow Depth Not available.
7:04 AM 5:11 PM
Waning Crescent, 1% visible
METAR KATW 071345Z 18009KT 10SM SCT090 BKN120 01/M02 A2965

10-Day Weather Forecast

Almanac

Astronomy

Feb. 07, 2016 Rise Set
Actual Time
Civil Twilight
Nautical Twilight
Astronomical Twilight
Moon
Length of Visible Light
Length of Day
Tomorrow will be .
, % of the Moon is Illuminated

Today's Extremes

State Highs State Lows

Community

WunderPhotos

Upload Photos

1,891,204 photos uploaded!

WunderBlog® & News

Nearby

Air Quality

  Air Quality AQ Index Pollutant
Not available.

Snow Depth

Station Depth Elevation

Earthquake Activity

City Distance Mag. Time & Date
Minimum magnitude displayed is 2.5.

Coastal Water Temperatures

Place Temperature

Stations

Nearby Weather Stations

Station Location Temp. Windchill Dew Point Humidity Wind Precip. Elev Updated Type
                   

Watches & Warnings

There are currently no watches in effect.